Time;durP1;ratioP1;P1;durP2;ratioP2;P2;SDS_P1;SDS_P2;PMS_P1;PMS_P2;Temp;Humidity;BMP_temperature;BMP_pressure;BME280_temperature;BME280_humidity;BME280_pressure;Samples;Min_cycle;Max_cycle;Signal;HPM_P1;HPM_P2
2022/12/11 00:02:07;;;;;;;20.10;7.30;;;;;;;9.06;92.40;95312.42;1667825;84;21715;-75
2022/12/11 00:04:33;;;;;;;18.25;9.03;;;;;;;9.08;92.58;95286.76;1660415;84;20976;-68
2022/12/11 00:07:00;;;;;;;17.42;9.33;;;;;;;9.09;92.30;95288.45;1666674;84;21119;-68
2022/12/11 00:09:26;;;;;;;13.65;7.72;;;;;;;9.15;92.64;95276.63;1669942;84;21043;-69
2022/12/11 00:11:53;;;;;;;13.85;8.00;;;;;;;9.14;92.12;95263.52;1674147;84;21035;-69
2022/12/11 00:14:20;;;;;;;27.95;8.83;;;;;;;9.16;92.29;95261.59;1655505;84;21446;-72
2022/12/11 00:16:48;;;;;;;15.28;7.05;;;;;;;9.17;92.25;95261.50;1673810;84;21027;-75
2022/12/11 00:19:17;;;;;;;17.73;7.58;;;;;;;9.16;92.17;95262.92;1672255;84;21063;-75
2022/12/11 00:21:44;;;;;;;11.70;6.58;;;;;;;9.18;92.16;95254.44;1667270;84;21107;-76
2022/12/11 00:24:11;;;;;;;15.20;6.42;;;;;;;9.18;92.17;95247.33;1667163;84;20992;-75
2022/12/11 00:26:38;;;;;;;12.50;6.55;;;;;;;9.17;92.25;95252.75;1679424;84;21025;-75
2022/12/11 00:29:13;;;;;;;13.15;6.90;;;;;;;9.15;92.09;95244.92;1665087;84;20999;-75
2022/12/11 00:31:38;;;;;;;13.78;7.05;;;;;;;9.14;92.34;95257.77;1665434;84;21023;-75
2022/12/11 00:34:05;;;;;;;14.53;7.53;;;;;;;9.15;92.12;95241.42;1657593;84;20952;-75
2022/12/11 00:36:31;;;;;;;14.20;7.50;;;;;;;9.11;91.86;95227.08;1669160;84;21503;-79
2022/12/11 00:38:58;;;;;;;16.40;7.33;;;;;;;9.11;92.13;95232.37;1664988;84;20964;-74
2022/12/11 00:41:25;;;;;;;10.35;6.80;;;;;;;9.10;92.06;95237.78;1672915;84;21044;-75
2022/12/11 00:43:51;;;;;;;14.20;7.15;;;;;;;9.10;92.06;95232.50;1678554;84;21548;-75
2022/12/11 00:46:19;;;;;;;14.60;7.62;;;;;;;9.09;92.00;95237.39;1677191;84;21390;-74
2022/12/11 00:48:48;;;;;;;14.23;7.42;;;;;;;9.07;91.98;95232.23;1684498;84;21034;-74
2022/12/11 00:51:16;;;;;;;13.45;7.28;;;;;;;9.09;92.03;95226.36;1683382;84;21020;-75
2022/12/11 00:53:43;;;;;;;14.58;7.70;;;;;;;9.11;92.12;95228.41;1668751;84;21088;-76
2022/12/11 00:56:18;;;;;;;14.20;8.43;;;;;;;9.14;91.91;95218.13;1663936;84;21388;-76
2022/12/11 00:58:47;;;;;;;14.85;8.03;;;;;;;9.16;91.94;95210.08;1666451;84;21496;-77
2022/12/11 01:01:17;;;;;;;15.72;8.18;;;;;;;9.15;91.70;95200.47;1669973;84;21478;-73
2022/12/11 01:03:45;;;;;;;15.43;8.15;;;;;;;9.17;91.88;95194.61;1673180;86;20983;-74
2022/12/11 01:06:19;;;;;;;15.88;8.10;;;;;;;9.16;91.76;95196.86;1672964;86;21004;-74
2022/12/11 01:08:47;;;;;;;14.73;8.03;;;;;;;9.14;91.65;95195.67;1672333;84;21042;-74
2022/12/11 01:11:16;;;;;;;12.95;7.80;;;;;;;9.13;91.78;95201.06;1667601;84;20992;-73
2022/12/11 01:13:43;;;;;;;18.67;7.95;;;;;;;9.13;91.70;95199.73;1661058;86;21043;-73
2022/12/11 01:16:13;;;;;;;16.05;9.15;;;;;;;9.14;91.69;95197.45;1653305;84;21024;-73
2022/12/11 01:18:40;;;;;;;15.83;8.60;;;;;;;9.12;91.61;95189.63;1660068;84;21418;-68
2022/12/11 01:21:10;;;;;;;15.15;7.75;;;;;;;9.13;91.82;95191.81;1628278;86;21031;-68
2022/12/11 01:23:37;;;;;;;13.80;7.35;;;;;;;9.14;91.80;95193.50;1629986;86;21089;-69
2022/12/11 01:26:07;;;;;;;19.65;7.60;;;;;;;9.15;91.58;95189.89;1608297;88;20996;-75
2022/12/11 01:28:34;;;;;;;12.58;7.40;;;;;;;9.12;91.58;95180.38;1601989;87;21039;-74
2022/12/11 01:31:01;;;;;;;12.50;7.40;;;;;;;9.14;91.60;95181.14;1618193;87;21043;-75
2022/12/11 01:33:28;;;;;;;17.40;7.40;;;;;;;9.14;91.65;95185.56;1644650;86;21019;-76
2022/12/11 01:35:55;;;;;;;13.22;7.03;;;;;;;9.16;91.85;95188.94;1648619;86;20992;-76
2022/12/11 01:38:21;;;;;;;16.37;7.80;;;;;;;9.19;91.84;95175.52;1644926;86;21028;-75
2022/12/11 01:40:50;;;;;;;15.10;7.47;;;;;;;9.20;91.72;95172.78;1641205;86;21482;-75
2022/12/11 01:43:17;;;;;;;13.18;7.37;;;;;;;9.21;91.74;95170.50;1647404;86;21039;-75
2022/12/11 01:45:47;;;;;;;12.25;7.40;;;;;;;9.21;91.57;95177.57;1643077;86;20984;-75
2022/12/11 01:48:21;;;;;;;13.62;7.05;;;;;;;9.17;91.58;95171.66;1650250;86;21005;-75
2022/12/11 01:50:57;;;;;;;;;;;;;;;9.15;91.74;95174.05;1641638;86;21044;-75
2022/12/11 01:53:34;;;;;;;13.98;6.37;;;;;;;9.13;92.52;95167.54;1643956;85;20096;-75
2022/12/11 01:56:02;;;;;;;15.03;6.67;;;;;;;9.10;92.15;95159.84;1649038;86;21353;-74
2022/12/11 01:58:33;;;;;;;15.78;8.45;;;;;;;9.08;92.03;95159.09;1637035;86;21557;-75
2022/12/11 02:01:01;;;;;;;14.85;7.80;;;;;;;9.08;92.35;95155.13;1640145;86;21076;-76
2022/12/11 02:03:28;;;;;;;11.25;7.70;;;;;;;9.09;92.36;95155.48;1637249;86;21486;-77
2022/12/11 02:05:59;;;;;;;16.70;7.62;;;;;;;9.11;92.44;95155.75;1637168;86;21031;-76
2022/12/11 02:08:26;;;;;;;15.75;7.90;;;;;;;9.14;92.38;95153.86;1638614;86;21437;-77
2022/12/11 02:11:13;;;;;;;13.38;7.05;;;;;;;9.16;92.68;95145.34;1636741;86;21004;-74
2022/12/11 02:14:03;;;;;;;14.35;7.15;;;;;;;9.18;92.66;95142.95;1638673;86;21060;-74
2022/12/11 02:16:51;;;;;;;12.95;7.72;;;;;;;9.17;93.33;95141.28;1625998;86;21060;-74
2022/12/11 02:19:38;;;;;;;13.00;7.42;;;;;;;9.23;93.47;95132.08;1626449;86;21040;-74
2022/12/11 02:22:10;;;;;;;18.40;8.80;;;;;;;9.25;93.50;95130.16;1636515;86;21573;-74
2022/12/11 02:24:48;;;;;;;12.80;7.65;;;;;;;9.26;94.61;95123.09;1638052;86;21048;-75
2022/12/11 02:27:44;;;;;;;11.90;7.85;;;;;;;9.28;94.13;95117.20;1638310;86;21450;-75
2022/12/11 02:30:14;;;;;;;12.63;7.65;;;;;;;9.31;94.45;95111.72;1619135;86;21326;-74
2022/12/11 02:32:52;;;;;;;12.37;7.65;;;;;;;9.33;93.62;95109.33;1638301;86;21361;-74
2022/12/11 02:35:27;;;;;;;17.82;9.03;;;;;;;9.30;94.19;95112.68;1608711;86;21454;-74
2022/12/11 02:38:17;;;;;;;16.07;8.45;;;;;;;9.28;94.38;95106.64;1635703;86;21241;-74
2022/12/11 02:40:48;;;;;;;11.38;7.17;;;;;;;9.29;94.39;95099.07;1637481;86;21064;-74
2022/12/11 02:43:17;;;;;;;14.83;8.23;;;;;;;9.31;94.58;95096.72;1634493;86;21044;-74
2022/12/11 02:45:46;;;;;;;14.53;8.83;;;;;;;9.32;94.99;95090.47;1638514;86;21016;-74
2022/12/11 02:48:15;;;;;;;16.67;9.13;;;;;;;9.35;94.84;95086.27;1638436;86;21080;-74
2022/12/11 02:50:50;;;;;;;16.00;8.55;;;;;;;9.37;95.30;95093.63;1638638;86;21454;-74
2022/12/11 02:53:21;;;;;;;13.18;8.68;;;;;;;9.45;95.43;95091.75;1630780;86;21466;-74
2022/12/11 02:55:53;;;;;;;12.45;8.45;;;;;;;9.49;95.01;95095.87;1627696;86;21012;-74
2022/12/11 02:58:32;;;;;;;14.03;8.18;;;;;;;9.46;94.95;95091.25;1634560;86;21024;-74
2022/12/11 03:00:59;;;;;;;10.72;7.28;;;;;;;9.44;95.23;95090.07;1633600;86;21020;-74
2022/12/11 03:03:29;;;;;;;11.48;7.80;;;;;;;9.48;95.24;95089.36;1629739;86;21510;-74
2022/12/11 03:05:56;;;;;;;14.33;7.67;;;;;;;9.50;95.76;95089.62;1633680;86;21040;-75
2022/12/11 03:08:23;;;;;;;11.70;7.53;;;;;;;9.50;95.10;95080.83;1632338;86;21052;-75
2022/12/11 03:10:49;;;;;;;10.60;7.08;;;;;;;9.49;95.24;95074.72;1636783;86;21019;-76
2022/12/11 03:13:19;;;;;;;14.00;7.67;;;;;;;9.44;95.85;95082.61;1630116;86;21059;-76
2022/12/11 03:16:03;;;;;;;15.08;7.92;;;;;;;9.44;95.53;95083.46;1631526;86;21466;-76
2022/12/11 03:19:02;;;;;;;16.52;7.75;;;;;;;9.42;95.42;95084.03;1636142;86;21056;-76
2022/12/11 03:21:50;;;;;;;15.00;8.03;;;;;;;9.37;95.62;95081.73;1575695;86;21061;-76
2022/12/11 03:24:29;;;;;;;15.25;7.22;;;;;;;9.34;96.11;95069.22;1638651;86;21405;-75
2022/12/11 03:27:04;;;;;;;14.73;8.53;;;;;;;9.32;95.94;95069.80;1641133;86;20997;-75
2022/12/11 03:29:38;;;;;;;20.57;8.55;;;;;;;9.29;95.58;95073.97;1621781;86;21019;-74
2022/12/11 03:32:18;;;;;;;13.88;9.18;;;;;;;9.23;95.57;95062.87;1623293;86;21024;-73
2022/12/11 03:34:56;;;;;;;14.07;8.38;;;;;;;9.20;95.77;95056.98;1625306;86;20981;-76
2022/12/11 03:37:27;;;;;;;13.90;8.45;;;;;;;9.17;95.78;95050.11;1629548;86;21024;-74
2022/12/11 03:40:00;;;;;;;19.35;9.20;;;;;;;9.13;95.85;95040.72;1631855;86;21052;-75
2022/12/11 03:42:27;;;;;;;16.27;8.80;;;;;;;9.09;96.00;95031.31;1628625;86;21060;-75
2022/12/11 03:44:57;;;;;;;15.85;9.43;;;;;;;9.06;95.99;95031.06;1635232;86;21017;-75
2022/12/11 03:47:26;;;;;;;18.15;10.23;;;;;;;9.05;95.95;95024.59;1630065;86;21064;-75
2022/12/11 03:49:54;;;;;;;19.73;10.28;;;;;;;9.01;96.78;95023.94;1643117;86;21026;-75
2022/12/11 03:52:22;;;;;;;18.50;10.95;;;;;;;8.99;96.53;95015.30;1638533;86;21051;-75
2022/12/11 03:54:50;;;;;;;17.30;10.18;;;;;;;8.96;96.20;95008.90;1638097;86;21028;-75
2022/12/11 03:57:20;;;;;;;19.50;11.68;;;;;;;8.93;96.35;95004.68;1636252;86;21087;-75
2022/12/11 03:59:49;;;;;;;21.15;11.30;;;;;;;8.92;96.53;95008.28;1638060;86;21020;-75
2022/12/11 04:02:16;;;;;;;21.45;12.65;;;;;;;8.90;96.45;95009.34;1630058;86;21087;-75
2022/12/11 04:04:43;;;;;;;24.23;12.95;;;;;;;8.88;96.70;95008.63;1626804;86;21045;-75
2022/12/11 04:07:09;;;;;;;20.85;11.65;;;;;;;8.87;96.55;95009.55;1627768;86;20981;-75
2022/12/11 04:09:36;;;;;;;20.50;12.25;;;;;;;8.85;96.77;95003.09;1620450;86;21033;-73
2022/12/11 04:12:02;;;;;;;22.42;11.70;;;;;;;8.83;96.75;94997.91;1634696;86;21068;-75
2022/12/11 04:24:13;;;;;;;20.52;10.75;;;;;;;8.81;96.60;94995.83;1630499;86;21021;-75
2022/12/11 04:25:12;;;;;;;19.70;11.43;;;;;;;8.74;96.54;94978.75;1633710;86;20996;-73
2022/12/11 04:27:48;;;;;;;15.98;9.55;;;;;;;8.70;96.66;94982.09;1627407;86;21020;-74
2022/12/11 04:30:24;;;;;;;17.90;9.70;;;;;;;8.70;96.97;94978.59;1617703;88;21025;-75
2022/12/11 04:32:53;;;;;;;20.15;10.55;;;;;;;8.67;96.88;94962.96;1637763;86;21068;-75
2022/12/11 04:35:21;;;;;;;17.55;10.20;;;;;;;8.65;97.18;94979.40;1651051;86;20968;-75
2022/12/11 04:37:48;;;;;;;21.95;10.18;;;;;;;8.65;96.90;94968.84;1629980;86;21019;-75
2022/12/11 04:40:18;;;;;;;14.28;9.00;;;;;;;8.66;96.76;94975.80;1629490;86;20953;-75
2022/12/11 04:42:44;;;;;;;19.27;9.50;;;;;;;8.68;96.79;94968.14;1628083;86;21044;-74
2022/12/11 04:45:11;;;;;;;15.58;8.68;;;;;;;8.71;97.04;94981.59;1627420;86;21514;-75
2022/12/11 04:47:40;;;;;;;15.05;8.13;;;;;;;8.73;97.15;94973.11;1614193;87;21037;-75
2022/12/11 04:50:11;;;;;;;13.83;7.35;;;;;;;8.74;97.02;94973.94;1684256;84;21105;-75
2022/12/11 04:52:37;;;;;;;16.00;8.43;;;;;;;8.77;97.17;94977.69;1696734;84;21001;-75
2022/12/11 04:55:06;;;;;;;13.08;7.55;;;;;;;8.82;97.58;94975.56;1689396;83;21387;-75
2022/12/11 04:57:33;;;;;;;11.00;7.30;;;;;;;8.88;97.58;94976.93;1697421;84;21514;-75
2022/12/11 04:59:59;;;;;;;13.15;7.50;;;;;;;8.92;97.98;94975.27;1697129;84;21052;-75
2022/12/11 05:02:26;;;;;;;15.85;8.05;;;;;;;8.94;97.56;94976.02;1686707;84;21486;-75
2022/12/11 05:04:52;;;;;;;10.32;6.78;;;;;;;9.01;98.18;94981.67;1683591;84;20996;-76
2022/12/11 05:07:19;;;;;;;14.65;7.50;;;;;;;9.06;97.72;94990.11;1686698;84;21044;-76
2022/12/11 05:09:45;;;;;;;14.75;7.53;;;;;;;9.06;97.43;94981.36;1686824;84;21025;-75
2022/12/11 05:12:12;;;;;;;16.25;7.00;;;;;;;9.08;97.66;94976.80;1697419;84;20956;-75
2022/12/11 05:14:38;;;;;;;13.38;7.72;;;;;;;9.10;97.90;94970.45;1695016;84;21004;-75
2022/12/11 05:17:05;;;;;;;15.08;7.08;;;;;;;9.11;97.98;94978.73;1686807;84;21140;-75
2022/12/11 05:19:31;;;;;;;14.85;7.37;;;;;;;9.21;98.33;94972.78;1689704;84;21014;-75
2022/12/11 05:21:58;;;;;;;14.73;7.70;;;;;;;9.23;97.66;94975.67;1680801;84;21442;-75
2022/12/11 05:24:25;;;;;;;13.62;6.97;;;;;;;9.24;97.59;94967.28;1688069;84;20961;-75
2022/12/11 05:26:51;;;;;;;13.50;6.70;;;;;;;9.23;97.57;94974.36;1683908;84;21016;-75
2022/12/11 05:29:18;;;;;;;12.07;7.05;;;;;;;9.27;97.65;94975.47;1688736;84;21431;-75
2022/12/11 05:31:44;;;;;;;13.90;6.85;;;;;;;9.26;97.50;94963.22;1686668;84;20996;-75
2022/12/11 05:34:11;;;;;;;17.77;7.95;;;;;;;9.29;97.83;94972.22;1699975;84;21123;-75
2022/12/11 05:36:38;;;;;;;14.60;7.35;;;;;;;9.33;97.52;94969.26;1691571;84;20977;-75
2022/12/11 05:39:04;;;;;;;12.18;7.05;;;;;;;9.36;97.49;94974.80;1691830;84;20997;-75
2022/12/11 05:41:32;;;;;;;12.10;6.70;;;;;;;9.35;97.38;94975.27;1686476;84;21264;-76
2022/12/11 05:43:59;;;;;;;10.93;6.35;;;;;;;9.33;97.28;94981.15;1686564;84;21051;-76
2022/12/11 05:46:29;;;;;;;10.98;6.62;;;;;;;9.30;97.15;94981.36;1686546;84;21091;-75
2022/12/11 05:49:00;;;;;;;10.53;6.97;;;;;;;9.30;98.02;94988.47;1695531;84;21505;-75
2022/12/11 05:51:29;;;;;;;11.63;7.20;;;;;;;9.33;97.60;94980.30;1698463;84;21019;-75
2022/12/11 05:53:57;;;;;;;19.30;8.10;;;;;;;9.31;97.53;94975.61;1686578;84;20996;-75
2022/12/11 05:56:30;;;;;;;12.63;7.00;;;;;;;9.27;98.06;94982.07;1684677;84;20978;-75
2022/12/11 05:58:59;;;;;;;13.68;6.10;;;;;;;9.23;97.09;94973.53;1680919;84;21012;-75
2022/12/11 06:01:34;;;;;;;17.02;7.03;;;;;;;9.14;96.96;94979.02;1686795;84;21465;-75
2022/12/11 06:04:02;;;;;;;17.10;9.50;;;;;;;9.08;97.21;94969.73;1685477;84;21000;-75
2022/12/11 06:06:32;;;;;;;15.68;9.10;;;;;;;9.02;97.52;94974.61;1687201;84;20998;-75
2022/12/11 06:09:00;;;;;;;15.35;8.88;;;;;;;9.01;97.76;94980.85;1688176;84;21035;-75
2022/12/11 06:11:30;;;;;;;12.82;8.93;;;;;;;9.01;97.70;94984.81;1673161;84;21035;-75
2022/12/11 06:13:56;;;;;;;20.20;9.90;;;;;;;8.97;97.54;94991.63;1684925;84;21449;-75
2022/12/11 06:16:24;;;;;;;18.50;10.18;;;;;;;8.94;97.44;94988.37;1686702;84;21427;-75
2022/12/11 06:18:51;;;;;;;18.95;10.48;;;;;;;8.90;97.03;94994.82;1685755;84;21493;-75
2022/12/11 06:21:24;;;;;;;13.25;6.55;;;;;;;8.86;98.11;95015.33;1686877;84;21047;-74
2022/12/11 06:23:55;;;;;;;10.48;5.45;;;;;;;8.91;99.22;95021.59;1686346;84;21099;-75
2022/12/11 06:26:22;;;;;;;13.00;5.75;;;;;;;8.98;98.77;95018.90;1693297;84;20983;-75
2022/12/11 06:28:50;;;;;;;14.28;6.90;;;;;;;9.02;98.66;95023.02;1706315;84;21025;-75
2022/12/11 06:31:18;;;;;;;11.97;5.20;;;;;;;9.06;98.32;95016.53;1686494;84;21438;-75
2022/12/11 06:33:45;;;;;;;5.12;2.47;;;;;;;9.07;99.20;95018.24;1697703;84;21008;-75
2022/12/11 06:36:16;;;;;;;5.80;2.50;;;;;;;9.24;99.78;95029.38;1688802;84;21091;-75
2022/12/11 06:38:43;;;;;;;5.67;3.00;;;;;;;9.42;99.73;95031.16;1684440;84;21387;-75
2022/12/11 06:41:10;;;;;;;8.75;4.37;;;;;;;9.55;99.43;95026.31;1686734;84;21009;-76
2022/12/11 06:43:39;;;;;;;7.37;4.47;;;;;;;9.61;99.03;95027.18;1669993;84;20996;-74
2022/12/11 06:46:10;;;;;;;14.03;5.20;;;;;;;9.58;98.24;95026.07;1672337;84;21015;-75
2022/12/11 06:48:37;;;;;;;11.85;5.55;;;;;;;9.56;98.33;95042.08;1667877;84;21083;-75
2022/12/11 06:51:10;;;;;;;11.45;6.97;;;;;;;9.54;98.11;95045.29;1667578;84;21465;-75
2022/12/11 06:53:37;;;;;;;13.78;7.67;;;;;;;9.49;97.85;95041.67;1672870;84;21007;-74
2022/12/11 06:56:07;;;;;;;15.43;8.00;;;;;;;9.45;98.27;95051.24;1668486;84;21107;-74
2022/12/11 06:58:36;;;;;;;14.35;7.87;;;;;;;9.45;98.33;95053.89;1647526;84;21062;-74
2022/12/11 07:01:04;;;;;;;12.95;6.25;;;;;;;9.46;98.23;95043.67;1659185;84;20967;-74
2022/12/11 07:03:30;;;;;;;6.33;3.90;;;;;;;9.49;98.07;95050.92;1655658;84;21084;-74
2022/12/11 07:06:01;;;;;;;2.58;1.25;;;;;;;9.55;96.73;95035.07;1659928;85;21480;-74
2022/12/11 07:08:28;;;;;;;1.98;0.70;;;;;;;9.68;95.82;95055.34;1654842;84;21107;-73
2022/12/11 07:11:07;;;;;;;0.72;0.40;;;;;;;9.80;93.14;95054.92;1661895;84;21461;-73
2022/12/11 07:13:34;;;;;;;2.67;0.60;;;;;;;9.89;90.78;95058.20;1647872;85;21004;-74
2022/12/11 07:16:03;;;;;;;0.82;0.50;;;;;;;10.01;89.20;95059.09;1665425;84;21034;-73
2022/12/11 07:18:31;;;;;;;0.50;0.37;;;;;;;10.08;87.68;95063.45;1665788;85;21024;-73
2022/12/11 07:20:59;;;;;;;1.62;0.40;;;;;;;10.11;87.28;95078.61;1663391;84;21739;-74
2022/12/11 07:23:27;;;;;;;0.70;0.40;;;;;;;10.15;86.53;95078.75;1665832;84;21039;-74
2022/12/11 07:25:54;;;;;;;1.60;0.60;;;;;;;10.18;86.62;95088.27;1673756;84;21019;-73
2022/12/11 07:28:21;;;;;;;1.60;0.60;;;;;;;10.19;87.17;95085.12;1668463;84;21063;-74
2022/12/11 07:30:47;;;;;;;0.93;0.40;;;;;;;10.19;85.82;95101.85;1668263;84;21064;-74
2022/12/11 07:33:14;;;;;;;2.15;1.10;;;;;;;10.16;81.54;95105.58;1658995;84;21014;-73
2022/12/11 07:35:41;;;;;;;15.18;8.98;;;;;;;10.14;82.44;95116.73;1652457;85;21448;-74
2022/12/11 07:38:07;;;;;;;7.15;5.47;;;;;;;10.13;81.19;95116.88;1660016;85;20997;-74
2022/12/11 07:40:37;;;;;;;3.37;1.80;;;;;;;10.09;79.44;95124.17;1662779;85;20961;-74
2022/12/11 07:43:03;;;;;;;2.05;1.20;;;;;;;10.04;76.86;95131.61;1676532;84;20954;-74
2022/12/11 07:45:30;;;;;;;2.50;1.37;;;;;;;9.99;74.87;95145.19;1685621;84;21055;-74
2022/12/11 07:47:57;;;;;;;3.10;0.60;;;;;;;9.97;77.68;95139.65;1689549;84;21099;-74
2022/12/11 07:50:24;;;;;;;3.92;0.80;;;;;;;9.92;75.53;95146.58;1686638;84;21437;-75
2022/12/11 07:52:51;;;;;;;0.53;0.50;;;;;;;9.89;76.86;95155.59;1699457;84;21027;-74
2022/12/11 07:55:18;;;;;;;0.40;0.40;;;;;;;9.85;74.09;95167.84;1686585;84;21004;-75
2022/12/11 07:57:44;;;;;;;0.40;0.37;;;;;;;9.81;75.28;95192.81;1705770;84;21024;-74
2022/12/11 08:00:11;;;;;;;0.60;0.50;;;;;;;9.75;75.32;95203.34;1693844;84;22064;-74
2022/12/11 08:02:41;;;;;;;0.60;0.50;;;;;;;9.69;75.65;95210.40;1684467;84;21370;-74
2022/12/11 08:05:08;;;;;;;0.50;0.40;;;;;;;9.59;74.60;95203.12;1674812;84;21466;-75
2022/12/11 08:07:35;;;;;;;3.30;0.40;;;;;;;9.54;74.63;95211.85;1692286;84;20977;-74
2022/12/11 08:10:04;;;;;;;1.10;0.60;;;;;;;9.50;73.84;95200.66;1678865;84;21084;-75
2022/12/11 08:12:33;;;;;;;0.57;0.50;;;;;;;9.46;74.59;95212.86;1688004;84;21020;-74
2022/12/11 08:15:00;;;;;;;1.17;0.95;;;;;;;9.40;74.03;95214.62;1678721;84;20992;-75
2022/12/11 08:17:27;;;;;;;1.12;0.70;;;;;;;9.35;74.03;95220.23;1687718;84;21024;-75
2022/12/11 08:19:53;;;;;;;0.53;0.30;;;;;;;9.31;74.41;95217.43;1705036;84;20992;-74
2022/12/11 08:22:20;;;;;;;0.60;0.40;;;;;;;9.29;72.92;95249.70;1700190;84;20992;-74
2022/12/11 08:24:46;;;;;;;0.40;0.30;;;;;;;9.30;70.28;95255.39;1694258;84;21019;-75
2022/12/11 08:27:13;;;;;;;0.30;0.20;;;;;;;9.32;70.68;95262.73;1680195;84;21060;-75
2022/12/11 08:29:40;;;;;;;0.20;0.13;;;;;;;9.32;69.54;95272.84;1675589;84;20989;-74
2022/12/11 08:32:06;;;;;;;0.28;0.20;;;;;;;9.33;69.72;95290.84;1684152;84;21115;-75
2022/12/11 08:34:33;;;;;;;0.82;0.20;;;;;;;9.30;69.44;95294.54;1686412;84;20965;-75
2022/12/11 08:36:59;;;;;;;0.23;0.20;;;;;;;9.26;66.98;95297.51;1696345;84;21442;-75
2022/12/11 08:39:26;;;;;;;0.30;0.28;;;;;;;9.23;68.06;95315.25;1688776;84;21008;-75
2022/12/11 08:41:53;;;;;;;0.60;0.20;;;;;;;9.21;67.13;95309.70;1686532;84;21012;-74
2022/12/11 08:44:19;;;;;;;2.52;1.50;;;;;;;9.17;67.02;95317.48;1678954;84;21427;-75
2022/12/11 08:46:47;;;;;;;0.20;0.17;;;;;;;9.15;66.70;95336.08;1682205;84;21008;-75
2022/12/11 08:49:13;;;;;;;0.13;0.13;;;;;;;9.09;64.79;95329.40;1686746;84;20969;-75
2022/12/11 08:51:40;;;;;;;0.37;0.30;;;;;;;9.04;63.91;95324.03;1681412;84;21000;-75
2022/12/11 08:54:08;;;;;;;0.42;0.25;;;;;;;9.02;65.44;95332.09;1688739;84;21792;-75
2022/12/11 08:56:34;;;;;;;0.20;0.20;;;;;;;8.99;65.29;95346.81;1687068;84;21032;-75
2022/12/11 08:59:03;;;;;;;0.28;0.20;;;;;;;8.95;64.49;95364.66;1686591;84;21044;-75
2022/12/11 09:01:29;;;;;;;0.20;0.20;;;;;;;8.93;63.55;95353.34;1686522;84;21047;-75
2022/12/11 09:03:56;;;;;;;0.90;0.50;;;;;;;8.88;63.86;95348.83;1685921;84;21027;-75
2022/12/11 09:06:26;;;;;;;0.47;0.37;;;;;;;8.88;65.37;95350.64;1673742;84;21027;-75
2022/12/11 09:08:57;;;;;;;0.40;0.40;;;;;;;8.84;64.99;95354.80;1674801;84;21592;-75
2022/12/11 09:11:28;;;;;;;0.60;0.40;;;;;;;8.82;65.59;95358.02;1684268;84;21016;-75
2022/12/11 09:13:55;;;;;;;0.20;0.20;;;;;;;8.77;64.79;95385.20;1696304;84;20976;-75
2022/12/11 09:16:25;;;;;;;0.40;0.30;;;;;;;8.74;65.03;95395.09;1686168;84;21021;-75
2022/12/11 09:18:55;;;;;;;0.23;0.20;;;;;;;8.67;64.53;95407.38;1689133;84;21450;-74
2022/12/11 09:21:27;;;;;;;0.33;0.33;;;;;;;8.64;65.10;95415.97;1686756;84;21523;-75
2022/12/11 09:23:56;;;;;;;0.88;0.50;;;;;;;8.58;65.19;95428.62;1684176;84;20992;-76
2022/12/11 09:26:24;;;;;;;2.12;1.00;;;;;;;8.53;65.57;95429.38;1686078;84;21052;-78
2022/12/11 09:28:52;;;;;;;1.62;1.10;;;;;;;8.48;66.46;95435.39;1697420;84;21446;-77
2022/12/11 09:31:28;;;;;;;1.37;0.98;;;;;;;8.43;66.74;95434.34;1681670;84;21061;-74
2022/12/11 09:34:01;;;;;;;1.62;0.82;;;;;;;8.38;66.47;95427.67;1685815;84;21024;-75
2022/12/11 09:36:28;;;;;;;1.17;0.80;;;;;;;8.38;67.92;95438.23;1687894;84;21008;-74
2022/12/11 09:39:05;;;;;;;0.82;0.60;;;;;;;8.33;66.84;95446.41;1690064;84;20997;-74
2022/12/11 09:41:48;;;;;;;1.52;0.62;;;;;;;8.32;65.24;95443.41;1689507;84;20976;-75
2022/12/11 09:44:38;;;;;;;1.77;0.68;;;;;;;8.29;64.25;95441.81;1671100;82;21505;-74
2022/12/11 09:47:10;;;;;;;4.10;1.65;;;;;;;8.24;63.13;95429.37;1677380;84;21086;-75
2022/12/11 09:49:41;;;;;;;4.37;1.00;;;;;;;8.19;62.35;95446.78;1673201;85;21083;-74
2022/12/11 09:52:31;;;;;;;1.35;0.55;;;;;;;8.18;63.38;95468.84;1676278;85;21063;-74
2022/12/11 09:55:03;;;;;;;0.40;0.20;;;;;;;8.21;63.95;95492.87;1668523;84;21441;-74
2022/12/11 09:57:40;;;;;;;0.20;0.20;;;;;;;8.27;62.14;95497.77;1678071;84;21438;-75
2022/12/11 10:00:33;;;;;;;0.93;0.28;;;;;;;8.30;62.15;95500.23;1672527;84;21092;-68
2022/12/11 10:03:42;;;;;;;1.02;0.40;;;;;;;8.36;63.73;95508.71;1670640;84;21067;-69
2022/12/11 10:06:44;;;;;;;0.72;0.40;;;;;;;8.39;63.41;95499.30;1661275;84;21059;-67
2022/12/11 10:09:52;;;;;;;2.15;0.85;;;;;;;8.41;61.85;95504.00;1666294;85;21128;-67
2022/12/11 10:12:48;;;;;;;24.15;5.15;;;;;;;8.40;62.27;95498.35;1656324;84;21039;-67
2022/12/11 10:15:43;;;;;;;3.33;1.10;;;;;;;8.41;62.32;95507.96;1668428;85;21426;-66
2022/12/11 10:18:14;;;;;;;1.75;0.70;;;;;;;8.42;63.57;95499.95;1665177;84;21060;-69
2022/12/11 10:20:42;;;;;;;0.95;0.60;;;;;;;8.45;64.52;95500.23;1668373;85;21087;-69
2022/12/11 10:23:43;;;;;;;1.00;0.57;;;;;;;8.48;64.80;95501.38;1668114;84;21430;-69
2022/12/11 10:26:20;;;;;;;1.42;0.50;;;;;;;8.52;65.54;95504.22;1668160;85;21096;-68
2022/12/11 10:28:47;;;;;;;0.62;0.40;;;;;;;8.54;65.40;95498.39;1667565;84;21060;-68
2022/12/11 10:31:21;;;;;;;0.80;0.40;;;;;;;8.51;65.87;95502.49;1664339;84;21083;-69
2022/12/11 10:34:04;;;;;;;0.98;0.50;;;;;;;8.51;66.27;95507.77;1658176;84;21035;-68
2022/12/11 10:36:37;;;;;;;0.90;0.60;;;;;;;8.51;66.11;95513.55;1659504;85;21032;-66
2022/12/11 10:39:19;;;;;;;0.88;0.60;;;;;;;8.51;65.99;95512.22;1666644;84;21094;-68
2022/12/11 10:41:49;;;;;;;1.30;0.55;;;;;;;8.48;65.77;95529.09;1614414;87;21002;-67
2022/12/11 10:44:28;;;;;;;2.00;0.70;;;;;;;8.50;66.42;95550.09;1622827;86;21028;-68
2022/12/11 10:47:12;;;;;;;1.22;0.50;;;;;;;8.31;64.44;95558.66;1624240;86;21100;-67
2022/12/11 10:49:59;;;;;;;2.83;0.80;;;;;;;7.72;65.57;95560.77;1689513;84;20989;-68
2022/12/11 10:52:37;;;;;;;0.55;0.40;;;;;;;7.72;65.57;95560.77;1678087;84;21032;-67
2022/12/11 10:55:21;;;;;;;0.82;0.60;;;;;;;7.49;66.25;95558.13;1686734;84;21449;-67
2022/12/11 10:58:00;;;;;;;1.15;0.70;;;;;;;7.40;67.01;95551.59;1693353;84;21112;-67
2022/12/11 11:00:39;;;;;;;0.88;0.60;;;;;;;7.31;67.92;95548.98;1690752;84;21043;-67
2022/12/11 11:03:23;;;;;;;0.80;0.57;;;;;;;7.30;68.23;95555.20;1681842;84;21086;-67
2022/12/11 11:06:04;;;;;;;2.22;0.50;;;;;;;7.26;68.49;95562.44;1685329;84;21045;-67
2022/12/11 11:08:47;;;;;;;2.00;1.05;;;;;;;7.23;67.87;95581.03;1678827;84;21041;-66
2022/12/11 11:11:35;;;;;;;2.10;1.20;;;;;;;7.43;65.28;95599.33;1693225;84;20992;-67
2022/12/11 11:14:13;;;;;;;1.98;1.10;;;;;;;7.10;66.56;95606.38;1698288;84;21103;-67
2022/12/11 11:16:44;;;;;;;9.55;5.05;;;;;;;6.87;67.13;95607.12;1691579;84;21059;-66
2022/12/11 11:19:30;;;;;;;3.50;0.95;;;;;;;6.76;66.82;95627.92;1681219;84;21068;-66
2022/12/11 11:22:10;;;;;;;1.92;0.82;;;;;;;6.60;67.23;95633.95;1681315;84;21103;-66
2022/12/11 11:24:56;;;;;;;2.00;1.50;;;;;;;6.86;66.84;95639.66;1686881;84;21381;-67
2022/12/11 11:27:52;;;;;;;1.85;1.20;;;;;;;7.71;66.43;95641.25;1695373;84;20957;-67
2022/12/11 11:30:26;;;;;;;1.92;1.42;;;;;;;8.49;67.08;95647.39;1703918;84;21493;-67
2022/12/11 11:33:01;;;;;;;2.60;1.12;;;;;;;9.70;64.32;95639.20;1699900;84;20975;-67
2022/12/11 11:35:30;;;;;;;1.80;1.00;;;;;;;10.10;62.02;95647.69;1704513;84;21028;-67
2022/12/11 11:38:19;;;;;;;1.60;1.27;;;;;;;9.82;60.84;95649.01;1704934;84;21028;-68
2022/12/11 11:40:54;;;;;;;1.17;0.85;;;;;;;9.61;61.77;95648.58;1685720;84;21040;-68
2022/12/11 11:43:47;;;;;;;1.02;0.88;;;;;;;9.96;60.34;95648.11;1684846;84;20995;-67
2022/12/11 11:46:35;;;;;;;1.95;1.62;;;;;;;9.63;57.64;95651.50;1700190;83;21036;-69
2022/12/11 11:49:42;;;;;;;1.67;1.10;;;;;;;9.00;58.21;95662.88;1698119;83;20992;-67
2022/12/11 11:52:32;;;;;;;1.30;0.85;;;;;;;8.39;60.65;95678.77;1680604;83;21020;-68
2022/12/11 11:55:32;;;;;;;1.50;1.02;;;;;;;8.23;63.06;95686.72;1692909;83;21012;-67
2022/12/11 11:58:10;;;;;;;2.30;1.65;;;;;;;8.34;61.17;95696.18;1694291;83;21070;-67
2022/12/11 12:00:37;;;;;;;3.27;1.87;;;;;;;8.05;62.29;95708.78;1694198;83;21087;-67
2022/12/11 12:03:15;;;;;;;2.77;1.60;;;;;;;7.81;62.74;95714.98;1693046;83;21083;-66
2022/12/11 12:06:24;;;;;;;3.45;1.87;;;;;;;7.47;62.64;95703.64;1693512;83;21449;-69
2022/12/11 12:09:18;;;;;;;2.58;1.50;;;;;;;7.33;63.55;95707.00;1683676;83;21065;-68